createdAt,value
2023-01-20T00:01:34.020Z,5.85
2023-01-20T00:04:01.372Z,5.47
2023-01-20T00:06:28.661Z,5.97
2023-01-20T00:08:57.798Z,5.10
2023-01-20T00:11:25.455Z,6.00
2023-01-20T00:13:56.826Z,5.32
2023-01-20T00:16:24.096Z,6.18
2023-01-20T00:18:50.864Z,5.20
2023-01-20T00:21:18.180Z,5.60
2023-01-20T00:23:46.061Z,5.65
2023-01-20T00:26:16.455Z,6.07
2023-01-20T00:28:44.011Z,5.78
2023-01-20T00:31:24.786Z,5.90
2023-01-20T00:33:52.933Z,5.53
2023-01-20T00:36:23.330Z,5.57
2023-01-20T00:38:50.341Z,6.63
2023-01-20T00:41:17.746Z,7.05
2023-01-20T00:43:45.040Z,6.63
2023-01-20T00:46:13.804Z,6.80
2023-01-20T00:48:41.344Z,6.53
2023-01-20T00:51:09.126Z,6.57
2023-01-20T00:53:36.400Z,6.28
2023-01-20T00:56:03.750Z,6.70
2023-01-20T00:58:30.893Z,6.18
2023-01-20T01:00:58.987Z,6.32
2023-01-20T01:03:28.316Z,7.28
2023-01-20T01:05:55.330Z,6.35
2023-01-20T01:08:24.478Z,6.68
2023-01-20T01:10:55.920Z,6.93
2023-01-20T01:13:22.801Z,6.30
2023-01-20T01:15:50.354Z,6.55
2023-01-20T01:18:20.663Z,6.00
2023-01-20T01:20:47.612Z,5.97
2023-01-20T01:23:14.479Z,6.10
2023-01-20T01:25:41.195Z,6.30
2023-01-20T01:28:08.002Z,5.80
2023-01-20T01:30:34.712Z,6.55
2023-01-20T01:33:01.543Z,6.00
2023-01-20T01:35:28.254Z,7.22
2023-01-20T01:37:54.988Z,6.80
2023-01-20T01:40:23.198Z,6.45
2023-01-20T01:42:49.927Z,6.32
2023-01-20T01:45:22.108Z,7.05
2023-01-20T01:47:54.602Z,6.80
2023-01-20T01:50:25.603Z,6.68
2023-01-20T01:52:55.501Z,6.88
2023-01-20T01:55:26.687Z,7.20
2023-01-20T01:57:54.915Z,6.57
2023-01-20T02:00:21.761Z,6.47
2023-01-20T02:02:49.014Z,5.82
2023-01-20T02:05:17.611Z,6.45
2023-01-20T02:07:47.043Z,6.57
2023-01-20T02:10:14.429Z,6.25
2023-01-20T02:12:44.304Z,7.32
2023-01-20T02:15:11.270Z,7.15
2023-01-20T02:17:56.091Z,6.68
2023-01-20T02:20:54.287Z,6.80
2023-01-20T02:23:35.866Z,6.78
2023-01-20T02:26:05.409Z,6.40
2023-01-20T02:29:08.714Z,6.70
2023-01-20T02:32:00.392Z,6.50
2023-01-20T02:34:46.747Z,7.07
2023-01-20T02:37:27.744Z,6.57
2023-01-20T02:40:13.157Z,6.43
2023-01-20T02:42:49.326Z,6.90
2023-01-20T02:45:28.253Z,6.90
2023-01-20T02:48:09.541Z,6.57
2023-01-20T02:50:54.103Z,6.00
2023-01-20T02:53:23.180Z,6.50
2023-01-20T02:55:53.886Z,7.07
2023-01-20T02:58:31.533Z,7.05
2023-01-20T03:01:23.028Z,6.97
2023-01-20T03:03:53.523Z,6.90
2023-01-20T03:06:25.790Z,7.78
2023-01-20T03:08:56.118Z,7.10
2023-01-20T03:11:23.132Z,6.82
2023-01-20T03:14:03.177Z,7.00
2023-01-20T03:16:30.654Z,7.35
2023-01-20T03:18:58.825Z,7.03
2023-01-20T03:21:25.624Z,7.10
2023-01-20T03:23:58.195Z,6.43
2023-01-20T03:26:24.928Z,7.07
2023-01-20T03:28:51.745Z,6.97
2023-01-20T03:31:31.163Z,6.45
2023-01-20T03:34:00.582Z,7.47
2023-01-20T03:36:30.145Z,7.22
2023-01-20T03:38:58.861Z,8.93
2023-01-20T03:41:43.314Z,8.55
2023-01-20T03:44:41.313Z,9.18
2023-01-20T03:47:20.194Z,8.05
2023-01-20T03:49:49.860Z,8.05
2023-01-20T03:52:48.223Z,8.45
2023-01-20T03:55:28.688Z,7.78
2023-01-20T03:58:04.895Z,8.05
2023-01-20T04:00:40.952Z,8.18
2023-01-20T04:03:12.007Z,7.25
2023-01-20T04:05:40.556Z,7.53
2023-01-20T04:08:10.879Z,7.85
2023-01-20T04:10:41.485Z,8.15
2023-01-20T04:13:08.719Z,9.48
2023-01-20T04:15:40.281Z,22.15
2023-01-20T04:18:19.457Z,25.73
2023-01-20T04:20:53.190Z,13.10
2023-01-20T04:23:47.503Z,9.90
2023-01-20T04:26:14.211Z,8.27
2023-01-20T04:28:40.927Z,7.10
2023-01-20T04:31:11.368Z,7.97
2023-01-20T04:33:44.922Z,7.97
2023-01-20T04:36:11.649Z,7.13
2023-01-20T04:38:38.371Z,7.22
2023-01-20T04:41:05.285Z,7.55
2023-01-20T04:43:33.075Z,7.85
2023-01-20T04:46:02.054Z,7.13
2023-01-20T04:48:28.745Z,7.60
2023-01-20T04:50:55.600Z,7.85
2023-01-20T04:53:22.347Z,8.07
2023-01-20T04:55:49.174Z,8.07
2023-01-20T04:58:15.939Z,8.35
2023-01-20T05:00:43.767Z,8.10
2023-01-20T05:03:10.734Z,8.02
2023-01-20T05:05:39.085Z,7.15
2023-01-20T05:08:06.092Z,7.55
2023-01-20T05:10:34.489Z,7.50
2023-01-20T05:13:02.103Z,8.82
2023-01-20T05:15:28.842Z,7.88
2023-01-20T05:17:55.539Z,8.68
2023-01-20T05:20:22.259Z,8.40
2023-01-20T05:22:48.982Z,7.82
2023-01-20T05:25:16.416Z,8.55
2023-01-20T05:27:45.026Z,7.57
2023-01-20T05:30:12.175Z,7.75
2023-01-20T05:32:38.956Z,8.07
2023-01-20T05:35:06.167Z,9.25
2023-01-20T05:37:32.870Z,8.85
2023-01-20T05:40:01.809Z,9.27
2023-01-20T05:42:28.498Z,8.93
2023-01-20T05:44:55.209Z,8.95
2023-01-20T05:47:23.285Z,8.48
2023-01-20T05:49:50.093Z,9.10
2023-01-20T05:52:17.395Z,9.13
2023-01-20T05:54:44.485Z,8.02
2023-01-20T05:57:18.107Z,8.27
2023-01-20T05:59:47.791Z,7.95
2023-01-20T06:02:20.537Z,9.10
2023-01-20T06:04:47.409Z,8.75
2023-01-20T06:07:15.000Z,8.43
2023-01-20T06:09:42.065Z,8.48
2023-01-20T06:12:11.955Z,7.28
2023-01-20T06:14:38.750Z,8.95
2023-01-20T06:17:05.453Z,8.20
2023-01-20T06:19:32.182Z,8.25
2023-01-20T06:21:58.895Z,8.50
2023-01-20T06:24:25.580Z,7.45
2023-01-20T06:26:52.502Z,7.07
2023-01-20T06:29:19.606Z,7.43
2023-01-20T06:31:46.891Z,6.75
2023-01-20T06:34:16.080Z,7.35
2023-01-20T06:36:42.826Z,7.82
2023-01-20T06:39:09.499Z,7.38
2023-01-20T06:41:36.235Z,8.07
2023-01-20T06:44:05.590Z,7.85
2023-01-20T06:46:32.465Z,8.18
2023-01-20T06:49:01.111Z,7.63
2023-01-20T06:51:29.719Z,7.50
2023-01-20T06:53:57.233Z,7.75
2023-01-20T06:56:25.911Z,7.65
2023-01-20T06:58:53.639Z,7.60
2023-01-20T07:01:23.683Z,7.68
2023-01-20T07:03:50.820Z,6.75
2023-01-20T07:06:27.128Z,7.22
2023-01-20T07:08:54.033Z,7.00
2023-01-20T07:11:21.000Z,6.70
2023-01-20T07:13:48.167Z,6.47
2023-01-20T07:16:16.263Z,6.18
2023-01-20T07:18:44.804Z,6.50
2023-01-20T07:21:12.157Z,6.15
2023-01-20T07:23:38.917Z,6.00
2023-01-20T07:26:08.855Z,5.40
2023-01-20T07:28:36.517Z,5.68
2023-01-20T07:31:08.749Z,6.40
2023-01-20T07:33:36.646Z,6.05
2023-01-20T07:36:04.097Z,6.80
2023-01-20T07:38:31.196Z,6.60
2023-01-20T07:41:06.277Z,6.32
2023-01-20T07:43:33.455Z,6.28
2023-01-20T07:46:03.367Z,6.35
2023-01-20T07:48:31.862Z,6.47
2023-01-20T07:51:03.297Z,6.57
2023-01-20T07:53:31.759Z,6.32
2023-01-20T07:56:12.086Z,6.10
2023-01-20T07:58:39.742Z,5.97
2023-01-20T08:01:15.107Z,5.90
2023-01-20T08:03:42.918Z,5.78
2023-01-20T08:06:11.921Z,5.95
2023-01-20T08:08:38.936Z,6.97
2023-01-20T08:11:06.822Z,7.10
2023-01-20T08:13:33.787Z,6.47
2023-01-20T08:16:06.066Z,6.38
2023-01-20T08:18:33.913Z,6.60
2023-01-20T08:21:00.694Z,6.72
2023-01-20T08:23:28.046Z,6.53
2023-01-20T08:25:59.973Z,7.25
2023-01-20T08:28:27.805Z,8.10
2023-01-20T08:30:55.151Z,8.65
2023-01-20T08:33:23.433Z,12.88
2023-01-20T08:35:50.302Z,13.13
2023-01-20T08:38:17.018Z,13.63
2023-01-20T08:40:44.291Z,15.25
2023-01-20T08:43:11.069Z,12.45
2023-01-20T08:45:37.883Z,8.70
2023-01-20T08:48:06.932Z,8.13
2023-01-20T08:50:35.057Z,6.65
2023-01-20T08:53:02.250Z,7.05
2023-01-20T08:55:29.051Z,6.80
2023-01-20T08:57:55.943Z,6.57
2023-01-20T09:00:23.024Z,6.88
2023-01-20T09:02:52.395Z,6.97
2023-01-20T09:05:22.346Z,6.70
2023-01-20T09:07:50.359Z,6.93
2023-01-20T09:10:17.496Z,6.13
2023-01-20T09:12:44.326Z,6.53
2023-01-20T09:15:11.983Z,6.38
2023-01-20T09:17:38.739Z,6.22
2023-01-20T09:20:07.000Z,6.03
2023-01-20T09:22:34.133Z,7.22
2023-01-20T09:25:00.931Z,7.20
2023-01-20T09:27:28.090Z,6.20
2023-01-20T09:29:54.793Z,7.13
2023-01-20T09:32:21.580Z,7.70
2023-01-20T09:34:48.238Z,7.28
2023-01-20T09:37:33.719Z,7.07
2023-01-20T09:40:19.199Z,9.65
2023-01-20T09:43:31.543Z,7.70
2023-01-20T09:46:08.635Z,6.85
2023-01-20T09:49:01.832Z,6.85
2023-01-20T09:52:15.952Z,6.63
2023-01-20T09:54:55.103Z,6.78
2023-01-20T09:57:24.830Z,6.50
2023-01-20T10:00:04.296Z,6.47
2023-01-20T10:02:38.011Z,6.45
2023-01-20T10:05:12.507Z,7.57
2023-01-20T10:07:46.319Z,7.15
2023-01-20T10:10:43.517Z,7.43
2023-01-20T10:13:14.805Z,6.90
2023-01-20T10:15:50.052Z,6.22
2023-01-20T10:18:18.460Z,6.63
2023-01-20T10:20:58.153Z,6.70
2023-01-20T10:23:33.672Z,6.95
2023-01-20T10:26:22.920Z,7.10
2023-01-20T10:29:01.387Z,7.38
2023-01-20T10:31:34.979Z,7.47
2023-01-20T10:34:12.150Z,7.57
2023-01-20T10:36:41.764Z,7.07
2023-01-20T10:39:40.457Z,6.78
2023-01-20T10:42:16.120Z,6.85
2023-01-20T10:44:44.024Z,7.30
2023-01-20T10:47:13.419Z,7.68
2023-01-20T10:49:54.094Z,6.57
2023-01-20T10:52:23.999Z,6.93
2023-01-20T10:55:26.183Z,6.50
2023-01-20T10:58:13.916Z,6.95
2023-01-20T11:00:42.275Z,6.88
2023-01-20T11:03:15.844Z,7.57
2023-01-20T11:05:43.241Z,7.03
2023-01-20T11:08:22.533Z,9.90
2023-01-20T11:10:52.893Z,7.85
2023-01-20T11:13:19.776Z,7.88
2023-01-20T11:15:50.568Z,7.38
2023-01-20T11:18:17.295Z,6.65
2023-01-20T11:20:53.728Z,7.45
2023-01-20T11:23:40.239Z,7.57
2023-01-20T11:26:17.575Z,7.22
2023-01-20T11:28:55.138Z,6.95
2023-01-20T11:31:34.929Z,7.15
2023-01-20T11:34:19.864Z,7.28
2023-01-20T11:36:48.825Z,7.65
2023-01-20T11:39:27.763Z,6.97
2023-01-20T11:42:25.049Z,6.90
2023-01-20T11:45:15.353Z,7.40
2023-01-20T11:47:58.521Z,6.75
2023-01-20T11:50:41.745Z,6.80
2023-01-20T11:53:18.023Z,7.93
2023-01-20T11:55:57.428Z,7.85
2023-01-20T11:58:50.611Z,7.85
2023-01-20T12:01:29.125Z,8.57
2023-01-20T12:04:20.339Z,7.28
2023-01-20T12:06:58.156Z,8.60
2023-01-20T12:09:32.787Z,8.43
2023-01-20T12:12:28.571Z,8.13
2023-01-20T12:15:06.375Z,7.78
2023-01-20T12:18:00.778Z,8.52
2023-01-20T12:20:45.652Z,9.00
2023-01-20T12:23:23.056Z,8.65
2023-01-20T12:26:02.739Z,9.77
2023-01-20T12:28:37.721Z,8.60
2023-01-20T12:31:09.391Z,9.13
2023-01-20T12:33:42.641Z,8.23
2023-01-20T12:36:41.472Z,8.67
2023-01-20T12:39:37.769Z,8.35
2023-01-20T12:42:24.461Z,9.27
2023-01-20T12:44:57.372Z,8.07
2023-01-20T12:47:33.727Z,9.23
2023-01-20T12:50:13.689Z,9.85
2023-01-20T12:53:10.852Z,9.05
2023-01-20T12:56:03.644Z,10.48
2023-01-20T12:58:53.302Z,10.18
2023-01-20T13:01:38.994Z,10.00
2023-01-20T13:04:23.623Z,9.20
2023-01-20T13:07:15.848Z,50.72
2023-01-20T13:10:09.354Z,10.02
2023-01-20T13:12:43.249Z,11.18
2023-01-20T13:15:21.088Z,10.32
2023-01-20T13:18:08.287Z,9.30
2023-01-20T13:20:40.726Z,9.65
2023-01-20T13:23:11.878Z,9.75
2023-01-20T13:25:40.765Z,9.20
2023-01-20T13:28:25.871Z,9.13
2023-01-20T13:30:55.358Z,7.78
2023-01-20T13:33:29.676Z,7.15
2023-01-20T13:35:57.624Z,9.15
2023-01-20T13:38:32.467Z,8.70
2023-01-20T13:41:05.745Z,9.30
2023-01-20T13:43:33.867Z,6.10
2023-01-20T13:46:03.694Z,9.07
2023-01-20T13:48:36.078Z,8.05
2023-01-20T13:51:28.055Z,8.13
2023-01-20T13:54:15.094Z,7.40
2023-01-20T13:56:41.873Z,7.20
2023-01-20T13:59:08.746Z,6.30
2023-01-20T14:01:39.582Z,5.30
2023-01-20T14:04:26.648Z,4.72
2023-01-20T14:06:54.454Z,4.95
2023-01-20T14:09:23.597Z,4.95
2023-01-20T14:11:56.050Z,4.45
2023-01-20T14:14:27.099Z,4.43
2023-01-20T14:16:55.815Z,5.30
2023-01-20T14:19:35.442Z,5.70
2023-01-20T14:22:16.603Z,5.25
2023-01-20T14:24:45.232Z,4.60
2023-01-20T14:27:27.288Z,4.57
2023-01-20T14:30:00.599Z,5.28
2023-01-20T14:32:29.156Z,4.78
2023-01-20T14:35:29.331Z,4.78
2023-01-20T14:37:56.112Z,5.15
2023-01-20T14:40:29.538Z,4.50
2023-01-20T14:43:15.709Z,4.68
2023-01-20T14:45:46.115Z,4.78
2023-01-20T14:48:28.191Z,5.32
2023-01-20T14:51:04.560Z,5.43
2023-01-20T14:53:31.321Z,6.50
2023-01-20T14:56:20.985Z,5.53
2023-01-20T14:58:49.436Z,5.25
2023-01-20T15:01:23.727Z,4.45
2023-01-20T15:04:00.869Z,5.03
2023-01-20T15:06:27.684Z,5.82
2023-01-20T15:09:06.279Z,5.85
2023-01-20T15:11:35.397Z,5.95
2023-01-20T15:14:02.055Z,6.22
2023-01-20T15:16:30.019Z,6.78
2023-01-20T15:19:15.337Z,7.05
2023-01-20T15:21:51.037Z,6.22
2023-01-20T15:24:39.743Z,7.15
2023-01-20T15:27:25.462Z,7.57
2023-01-20T15:30:12.947Z,7.72
2023-01-20T15:32:40.667Z,9.05
2023-01-20T15:35:07.800Z,9.55
2023-01-20T15:37:34.461Z,9.65
2023-01-20T15:40:02.530Z,9.80
2023-01-20T15:42:29.184Z,10.27
2023-01-20T15:44:56.277Z,9.10
2023-01-20T15:47:29.256Z,9.75
2023-01-20T15:49:55.970Z,11.15
2023-01-20T15:52:22.711Z,11.10
2023-01-20T15:54:49.402Z,10.15
2023-01-20T15:57:18.845Z,10.20
2023-01-20T15:59:46.924Z,10.70
2023-01-20T16:02:26.718Z,11.43
2023-01-20T16:04:53.456Z,10.50
2023-01-20T16:07:21.080Z,10.15
2023-01-20T16:09:47.895Z,11.32
2023-01-20T16:12:16.477Z,11.23
2023-01-20T16:14:44.689Z,11.07
2023-01-20T16:17:17.875Z,11.15
2023-01-20T16:19:48.012Z,11.50
2023-01-20T16:22:14.983Z,10.23
2023-01-20T16:24:44.019Z,9.27
2023-01-20T16:27:16.247Z,10.25
2023-01-20T16:29:42.971Z,9.25
2023-01-20T16:32:11.417Z,10.52
2023-01-20T16:34:38.254Z,10.10
2023-01-20T16:37:06.361Z,10.10
2023-01-20T16:39:33.951Z,10.55
2023-01-20T16:42:00.639Z,9.63
2023-01-20T16:44:27.350Z,11.07
2023-01-20T16:46:54.342Z,10.63
2023-01-20T16:49:22.733Z,9.30
2023-01-20T16:51:51.119Z,9.88
2023-01-20T16:54:17.951Z,9.70
2023-01-20T16:56:44.650Z,8.63
2023-01-20T16:59:11.400Z,8.15
2023-01-20T17:01:38.237Z,9.15
2023-01-20T17:04:08.301Z,10.60
2023-01-20T17:06:36.227Z,13.02
2023-01-20T17:09:05.303Z,11.93
2023-01-20T17:11:37.260Z,10.02
2023-01-20T17:14:07.214Z,8.88
2023-01-20T17:16:34.255Z,8.60
2023-01-20T17:19:01.527Z,9.60
2023-01-20T17:21:30.343Z,8.00
2023-01-20T17:24:00.539Z,8.40
2023-01-20T17:26:27.472Z,7.65
2023-01-20T17:28:59.326Z,7.63
2023-01-20T17:31:26.455Z,7.38
2023-01-20T17:33:53.206Z,7.75
2023-01-20T17:36:20.559Z,7.30
2023-01-20T17:38:47.298Z,7.03
2023-01-20T17:41:14.716Z,7.82
2023-01-20T17:43:44.809Z,7.40
2023-01-20T17:46:12.813Z,7.75
2023-01-20T17:48:39.535Z,7.90
2023-01-20T17:51:15.047Z,8.73
2023-01-20T17:53:42.430Z,8.60
2023-01-20T17:56:13.138Z,7.75
2023-01-20T17:58:43.426Z,8.82
2023-01-20T18:01:21.483Z,9.63
2023-01-20T18:03:50.392Z,8.75
2023-01-20T18:06:19.166Z,8.68
2023-01-20T18:08:52.341Z,11.25
2023-01-20T18:11:20.447Z,11.40
2023-01-20T18:13:52.535Z,9.85
2023-01-20T18:16:21.152Z,9.60
2023-01-20T18:18:50.000Z,10.52
2023-01-20T18:21:28.922Z,11.85
2023-01-20T18:23:56.299Z,10.68
2023-01-20T18:26:25.833Z,10.10
2023-01-20T18:28:59.953Z,10.55
2023-01-20T18:31:28.871Z,9.93
2023-01-20T18:34:00.970Z,10.40
2023-01-20T18:36:31.008Z,10.43
2023-01-20T18:39:04.108Z,8.65
2023-01-20T18:41:32.493Z,10.10
2023-01-20T18:43:59.548Z,8.30
2023-01-20T18:46:27.328Z,8.30
2023-01-20T18:48:57.477Z,7.47
2023-01-20T18:51:27.008Z,8.43
2023-01-20T18:54:04.568Z,8.43
2023-01-20T18:56:33.030Z,8.23
2023-01-20T18:59:00.846Z,8.27
2023-01-20T19:01:32.097Z,8.88
2023-01-20T19:03:58.899Z,8.70
2023-01-20T19:06:27.958Z,8.93
2023-01-20T19:08:57.003Z,8.80
2023-01-20T19:11:30.507Z,9.43
2023-01-20T19:13:58.229Z,8.88
2023-01-20T19:16:28.455Z,9.15
2023-01-20T19:18:57.134Z,10.15
2023-01-20T19:21:25.495Z,9.15
2023-01-20T19:23:54.509Z,9.38
2023-01-20T19:26:28.712Z,9.10
2023-01-20T19:29:02.503Z,11.20
2023-01-20T19:31:36.205Z,10.82
2023-01-20T19:34:04.698Z,10.13
2023-01-20T19:36:32.940Z,9.48
2023-01-20T19:39:01.132Z,10.13
2023-01-20T19:41:31.966Z,11.25
2023-01-20T19:44:01.853Z,10.32
2023-01-20T19:46:30.558Z,9.88
2023-01-20T19:48:58.427Z,10.85
2023-01-20T19:51:25.987Z,11.30
2023-01-20T19:53:58.531Z,9.82
2023-01-20T19:56:28.318Z,10.02
2023-01-20T19:58:57.072Z,9.85
2023-01-20T20:01:32.499Z,10.07
2023-01-20T20:04:04.538Z,9.30
2023-01-20T20:06:38.242Z,9.07
2023-01-20T20:09:11.005Z,8.77
2023-01-20T20:11:38.737Z,9.20
2023-01-20T20:14:07.741Z,10.80
2023-01-20T20:16:36.660Z,9.88
2023-01-20T20:19:03.846Z,9.93
2023-01-20T20:21:30.807Z,10.13
2023-01-20T20:24:00.020Z,9.73
2023-01-20T20:26:29.991Z,10.18
2023-01-20T20:29:00.455Z,8.73
2023-01-20T20:31:29.424Z,8.63
2023-01-20T20:33:59.980Z,8.88
2023-01-20T20:36:32.902Z,9.20
2023-01-20T20:39:01.304Z,9.27
2023-01-20T20:41:33.246Z,9.23
2023-01-20T20:44:01.564Z,9.85
2023-01-20T20:46:29.460Z,9.73
2023-01-20T20:49:00.238Z,9.60
2023-01-20T20:51:33.648Z,9.20
2023-01-20T20:54:02.266Z,9.05
2023-01-20T20:56:33.035Z,10.07
2023-01-20T20:59:03.164Z,12.38
2023-01-20T21:01:34.277Z,11.88
2023-01-20T21:04:02.537Z,10.32
2023-01-20T21:06:31.799Z,11.45
2023-01-20T21:09:00.192Z,9.88
2023-01-20T21:11:27.654Z,10.65
2023-01-20T21:13:54.796Z,9.75
2023-01-20T21:16:23.430Z,11.05
2023-01-20T21:18:59.767Z,16.92
2023-01-20T21:21:29.183Z,12.85
2023-01-20T21:23:57.551Z,10.43
2023-01-20T21:26:29.952Z,10.95
2023-01-20T21:28:57.839Z,11.90
2023-01-20T21:31:27.786Z,13.43
2023-01-20T21:33:58.330Z,13.85
2023-01-20T21:36:26.319Z,13.73
2023-01-20T21:38:53.026Z,15.30
2023-01-20T21:41:20.036Z,15.55
2023-01-20T21:44:06.883Z,14.25
2023-01-20T21:46:39.096Z,15.15
2023-01-20T21:49:25.420Z,13.23
2023-01-20T21:52:10.616Z,14.95
2023-01-20T21:54:39.794Z,14.50
2023-01-20T21:57:08.470Z,14.18
2023-01-20T21:59:35.200Z,14.75
2023-01-20T22:02:02.047Z,15.70
2023-01-20T22:04:30.364Z,13.20
2023-01-20T22:06:57.123Z,13.57
2023-01-20T22:09:23.864Z,13.65
2023-01-20T22:11:51.065Z,15.27
2023-01-20T22:14:17.939Z,14.00
2023-01-20T22:16:44.818Z,14.25
2023-01-20T22:19:14.888Z,13.85
2023-01-20T22:21:44.589Z,13.82
2023-01-20T22:24:11.427Z,15.95
2023-01-20T22:26:38.458Z,15.82
2023-01-20T22:29:05.278Z,19.45
2023-01-20T22:31:34.124Z,17.27
2023-01-20T22:34:07.883Z,16.27
2023-01-20T22:36:35.041Z,17.85
2023-01-20T22:39:02.836Z,16.52
2023-01-20T22:41:29.857Z,16.40
2023-01-20T22:43:57.314Z,15.55
2023-01-20T22:46:26.156Z,15.63
2023-01-20T22:48:53.920Z,16.60
2023-01-20T22:51:23.011Z,19.48
2023-01-20T22:53:50.153Z,19.10
2023-01-20T22:56:21.018Z,19.38
2023-01-20T22:58:51.043Z,16.75
2023-01-20T23:01:23.692Z,15.55
2023-01-20T23:03:55.699Z,15.40
2023-01-20T23:06:23.614Z,14.85
2023-01-20T23:08:50.627Z,15.65
2023-01-20T23:11:19.104Z,15.57
2023-01-20T23:13:46.803Z,14.75
2023-01-20T23:16:20.076Z,16.67
2023-01-20T23:18:47.346Z,17.60
2023-01-20T23:21:15.689Z,19.30
2023-01-20T23:23:42.621Z,22.40
2023-01-20T23:26:16.953Z,23.58
2023-01-20T23:28:45.564Z,22.20
2023-01-20T23:31:14.960Z,21.52
2023-01-20T23:33:43.777Z,17.13
2023-01-20T23:36:20.573Z,14.75
2023-01-20T23:38:48.638Z,16.02
2023-01-20T23:41:16.085Z,15.85
2023-01-20T23:43:43.070Z,16.85
2023-01-20T23:46:12.158Z,17.60
2023-01-20T23:48:39.222Z,18.63
2023-01-20T23:51:07.038Z,17.70
2023-01-20T23:53:37.709Z,19.48
2023-01-20T23:56:08.093Z,18.60
2023-01-20T23:58:34.876Z,19.42
